Time;durP1;ratioP1;P1;durP2;ratioP2;P2;SDS_P1;SDS_P2;PMS_P1;PMS_P2;Temp;Humidity;BMP_temperature;BMP_pressure;BME280_temperature;BME280_humidity;BME280_pressure;Samples;Min_cycle;Max_cycle;Signal;HPM_P1;HPM_P2
2023/08/13 00:00:59;;;;;;;15.98;4.22;;;;;;;-146.25;100.00;52232.34;2071720;28;33875;-66
2023/08/13 00:02:01;;;;;;;14.23;3.47;;;;;;;-146.25;100.00;52270.88;2071466;28;34706;-66
2023/08/13 00:03:03;;;;;;;11.23;3.92;;;;;;;-146.25;100.00;52236.41;2071538;28;34902;-66
2023/08/13 00:04:07;;;;;;;11.70;3.75;;;;;;;-146.25;100.00;52238.44;2071571;28;39421;-66
2023/08/13 00:05:09;;;;;;;17.75;4.72;;;;;;;-146.25;100.00;52212.06;2072461;28;36156;-67
2023/08/13 00:06:11;;;;;;;8.60;3.30;;;;;;;-146.25;100.00;52256.69;2070948;28;32665;-67
2023/08/13 00:07:13;;;;;;;9.85;3.28;;;;;;;-146.25;100.00;52301.28;2071171;28;36655;-67
2023/08/13 00:08:15;;;;;;;10.20;3.58;;;;;;;-146.25;100.00;52238.44;2072441;28;20034;-67
2023/08/13 00:09:17;;;;;;;10.18;2.97;;;;;;;-146.25;100.00;52295.19;2071533;28;38705;-67
2023/08/13 00:10:19;;;;;;;7.72;2.85;;;;;;;-146.25;100.00;52287.09;2071207;28;33085;-66
2023/08/13 00:11:21;;;;;;;12.63;3.95;;;;;;;-146.25;100.00;52274.94;2071929;28;32471;-66
2023/08/13 00:12:23;;;;;;;7.90;3.60;;;;;;;-146.25;100.00;52260.72;2071654;28;37480;-67
2023/08/13 00:13:24;;;;;;;9.77;3.25;;;;;;;-146.25;100.00;52248.56;2072105;28;20073;-66
2023/08/13 00:14:29;;;;;;;11.57;3.85;;;;;;;-146.25;100.00;52252.63;2070728;28;36785;-66
2023/08/13 00:15:30;;;;;;;11.38;3.10;;;;;;;-146.25;100.00;52283.03;2071835;28;31095;-66
2023/08/13 00:16:33;;;;;;;11.48;3.55;;;;;;;-146.25;100.00;52258.72;2071439;28;33179;-67
2023/08/13 00:17:35;;;;;;;10.05;3.20;;;;;;;-146.25;100.00;52289.13;2071839;28;37976;-66
2023/08/13 00:18:39;;;;;;;12.15;3.22;;;;;;;-146.25;100.00;52236.41;2072308;28;20047;-66
2023/08/13 00:19:41;;;;;;;13.73;4.15;;;;;;;-146.25;100.00;52238.44;2071451;28;39186;-66
2023/08/13 00:20:43;;;;;;;12.35;3.70;;;;;;;-146.25;100.00;52230.31;2071070;28;32314;-66
2023/08/13 00:21:44;;;;;;;8.95;3.28;;;;;;;-146.25;100.00;52331.69;2072384;28;31890;-66
2023/08/13 00:22:59;;;;;;;10.20;3.35;;;;;;;-146.25;100.00;52248.56;2071242;28;37090;-66
2023/08/13 00:24:01;;;;;;;10.52;3.80;;;;;;;-146.25;100.00;52305.34;2072360;28;20115;-65
2023/08/13 00:25:03;;;;;;;9.05;2.60;;;;;;;-146.25;100.00;52248.56;2071384;28;34974;-66
2023/08/13 00:26:04;;;;;;;11.02;3.22;;;;;;;-146.25;100.00;52250.59;2072489;28;20950;-66
2023/08/13 00:27:06;;;;;;;8.98;3.20;;;;;;;-146.25;100.00;52236.41;2071617;28;37558;-66
2023/08/13 00:28:08;;;;;;;8.55;3.00;;;;;;;-146.25;100.00;52264.78;2072512;28;20042;-66
2023/08/13 00:29:10;;;;;;;13.20;3.33;;;;;;;-146.25;100.00;52264.78;2071523;28;20047;-66
2023/08/13 00:30:12;;;;;;;13.35;3.70;;;;;;;-146.25;100.00;52258.72;2071255;28;32243;-66
2023/08/13 00:31:13;;;;;;;12.27;3.42;;;;;;;-146.25;100.00;52281.00;2071821;28;22963;-66
2023/08/13 00:32:15;;;;;;;9.10;3.35;;;;;;;-146.25;100.00;52234.38;2072521;28;20046;-66
2023/08/13 00:33:17;;;;;;;7.78;3.08;;;;;;;-146.25;100.00;52291.16;2071584;28;30570;-66
2023/08/13 00:34:19;;;;;;;5.97;3.05;;;;;;;-146.25;100.00;52236.41;2071828;28;20042;-65
2023/08/13 00:35:21;;;;;;;9.88;2.70;;;;;;;-146.25;100.00;52264.78;2070811;28;31644;-66
2023/08/13 00:36:25;;;;;;;11.63;3.10;;;;;;;-146.25;100.00;52238.44;2071472;28;20039;-66
2023/08/13 00:37:27;;;;;;;8.38;2.90;;;;;;;-146.25;100.00;52242.50;2071538;28;20153;-66
2023/08/13 00:38:29;;;;;;;14.65;3.85;;;;;;;-146.25;100.00;52264.78;2070961;28;30200;-66
2023/08/13 00:39:31;;;;;;;14.55;3.88;;;;;;;-146.25;100.00;52266.81;2071617;28;20859;-66
2023/08/13 00:40:34;;;;;;;9.90;3.83;;;;;;;-146.25;100.00;52276.97;2079346;28;27803;-67
2023/08/13 00:41:36;;;;;;;9.07;3.80;;;;;;;-146.25;100.00;52242.50;2079089;28;26828;-66
2023/08/13 00:42:38;;;;;;;14.20;4.00;;;;;;;-146.25;100.00;52295.19;2079981;28;20089;-66
2023/08/13 00:43:39;;;;;;;10.43;4.10;;;;;;;-146.25;100.00;52256.69;2071512;28;29529;-66
2023/08/13 00:44:41;;;;;;;9.93;4.20;;;;;;;-146.25;100.00;52260.72;2071981;28;20904;-66
2023/08/13 00:45:46;;;;;;;9.30;3.80;;;;;;;-146.25;100.00;52278.97;2071178;28;20859;-66
2023/08/13 00:46:50;;;;;;;14.05;4.45;;;;;;;-146.25;100.00;52234.38;2071037;28;30306;-66
2023/08/13 00:47:52;;;;;;;13.85;4.55;;;;;;;-146.25;100.00;52232.34;2070953;28;21005;-67
2023/08/13 00:48:58;;;;;;;16.75;4.40;;;;;;;-146.25;100.00;52266.81;2071062;28;34351;-66
2023/08/13 00:50:04;;;;;;;12.88;4.63;;;;;;;-146.25;100.00;52244.50;2063367;28;20245;-66
2023/08/13 00:51:09;;;;;;;15.30;4.35;;;;;;;-146.25;100.00;52268.84;2063934;28;27728;-66
2023/08/13 00:52:11;;;;;;;19.10;4.65;;;;;;;-146.25;100.00;52303.31;2071733;28;20042;-66
2023/08/13 00:53:16;;;;;;;13.48;4.40;;;;;;;-146.25;100.00;52270.88;2079359;28;20056;-66
2023/08/13 00:54:17;;;;;;;15.75;4.07;;;;;;;-146.25;100.00;52218.16;2079171;28;21032;-66
2023/08/13 00:55:19;;;;;;;8.68;3.75;;;;;;;-146.25;100.00;52236.41;2070812;28;28930;-66
2023/08/13 00:56:23;;;;;;;13.38;3.50;;;;;;;-146.25;100.00;52260.72;2071532;28;20042;-66
2023/08/13 00:57:25;;;;;;;10.95;3.70;;;;;;;-146.25;100.00;52238.44;2071099;28;26555;-66
2023/08/13 00:58:26;;;;;;;11.27;3.92;;;;;;;-146.25;100.00;52238.44;2071370;28;24845;-66
2023/08/13 00:59:30;;;;;;;10.90;3.83;;;;;;;-146.25;100.00;52268.84;2071387;28;21839;-66
2023/08/13 01:00:32;;;;;;;13.43;4.60;;;;;;;-146.25;100.00;52234.38;2071391;28;20046;-66
2023/08/13 01:01:34;;;;;;;12.02;4.47;;;;;;;-146.25;100.00;52268.84;2062445;28;32355;-65
2023/08/13 01:02:38;;;;;;;11.85;4.13;;;;;;;-146.25;100.00;52260.72;2071016;28;31550;-66
2023/08/13 01:03:40;;;;;;;11.82;3.70;;;;;;;-146.25;100.00;52258.72;2071045;28;28926;-67
2023/08/13 01:04:45;;;;;;;10.00;3.70;;;;;;;-146.25;100.00;52254.66;2070777;28;32594;-67
2023/08/13 01:05:57;;;;;;;13.80;4.38;;;;;;;-146.25;100.00;52258.72;2071852;28;20043;-66
2023/08/13 01:07:13;;;;;;;8.60;3.75;;;;;;;-146.25;100.00;52291.16;2072286;28;23326;-66
2023/08/13 01:08:35;;;;;;;12.88;4.22;;;;;;;-146.25;100.00;52244.50;2071779;28;20089;-65
2023/08/13 01:10:18;;;;;;;14.02;4.28;;;;;;;-146.25;100.00;52254.66;2070703;28;34009;-66
2023/08/13 01:11:38;;;;;;;13.85;3.97;;;;;;;-146.25;100.00;52244.50;2071946;28;20031;-66
2023/08/13 01:12:48;;;;;;;11.13;3.80;;;;;;;-146.25;100.00;52250.59;2071513;28;32589;-66
2023/08/13 01:14:08;;;;;;;;;;;;;;;-146.25;100.00;52266.81;2071455;28;31346;-66
2023/08/13 01:15:18;;;;;;;7.97;3.78;;;;;;;-146.25;100.00;52276.97;2071315;28;33984;-67
2023/08/13 01:16:23;;;;;;;17.40;4.47;;;;;;;-146.25;100.00;52236.41;2071610;28;31757;-66
2023/08/13 01:17:26;;;;;;;14.02;4.50;;;;;;;-146.25;100.00;52254.66;2070807;28;37373;-66
2023/08/13 01:18:30;;;;;;;13.40;4.28;;;;;;;-146.25;100.00;52272.91;2070799;28;30801;-66
2023/08/13 01:19:32;;;;;;;11.38;3.80;;;;;;;-146.25;100.00;52262.75;2062854;28;25296;-66
2023/08/13 01:20:44;;;;;;;12.88;4.22;;;;;;;-146.25;100.00;52262.75;2062799;28;32511;-66
2023/08/13 01:21:46;;;;;;;11.23;3.97;;;;;;;-146.25;100.00;52264.78;2072290;28;20055;-66
2023/08/13 01:22:49;;;;;;;10.80;4.32;;;;;;;-146.25;100.00;52262.75;2071258;28;28752;-66
2023/08/13 01:23:53;;;;;;;10.27;4.05;;;;;;;-146.25;100.00;52244.50;2071131;28;26402;-66
2023/08/13 01:24:56;;;;;;;11.80;5.25;;;;;;;-146.25;100.00;52285.06;2071603;28;20042;-66
2023/08/13 01:26:07;;;;;;;14.27;4.97;;;;;;;-146.25;100.00;52250.59;2062519;28;26684;-66
2023/08/13 01:27:27;;;;;;;7.70;3.75;;;;;;;-146.25;100.00;52276.97;2064717;28;20866;-66
2023/08/13 01:28:53;;;;;;;9.32;4.60;;;;;;;-146.25;100.00;52250.59;2062779;28;28088;-66
2023/08/13 01:30:08;;;;;;;18.27;5.47;;;;;;;-146.25;100.00;52285.06;2068325;28;25383;-66
2023/08/13 01:31:19;;;;;;;10.68;4.28;;;;;;;-146.25;100.00;52281.00;2070850;28;29130;-66
2023/08/13 01:32:33;;;;;;;12.52;4.43;;;;;;;-146.25;100.00;52254.66;2058245;28;32585;-66
2023/08/13 01:33:35;;;;;;;14.23;5.15;;;;;;;-146.25;100.00;52252.63;2059243;28;24065;-65
2023/08/13 01:34:38;;;;;;;10.90;4.55;;;;;;;-146.25;100.00;52266.81;2062515;28;33265;-66
2023/08/13 01:35:42;;;;;;;12.60;4.93;;;;;;;-146.25;100.00;52266.81;2063274;28;20244;-65
2023/08/13 01:36:46;;;;;;;12.43;5.15;;;;;;;-146.25;100.00;52281.00;2070923;28;33129;-66
2023/08/13 01:37:50;;;;;;;18.23;5.75;;;;;;;-146.25;100.00;52272.91;2071253;28;20899;-66
2023/08/13 01:38:53;;;;;;;11.98;4.88;;;;;;;-146.25;100.00;52278.97;2071465;28;20903;-66
2023/08/13 01:39:55;;;;;;;11.63;5.53;;;;;;;-146.25;100.00;52252.63;2063043;28;20046;-66
2023/08/13 01:41:01;;;;;;;13.25;5.35;;;;;;;-146.25;100.00;52250.59;2055137;28;23573;-67
2023/08/13 01:42:06;;;;;;;12.70;5.03;;;;;;;-146.25;100.00;52230.31;2070815;28;38852;-66
2023/08/13 01:43:09;;;;;;;16.92;5.70;;;;;;;-146.25;100.00;52236.41;2078904;28;20928;-66
2023/08/13 01:44:14;;;;;;;14.48;4.53;;;;;;;-146.25;100.00;52268.84;2079104;28;20123;-66
2023/08/13 01:45:18;;;;;;;12.13;4.95;;;;;;;-146.25;100.00;52295.19;2078897;28;25690;-66
2023/08/13 01:46:20;;;;;;;11.38;4.57;;;;;;;-146.25;100.00;52260.72;2078857;28;32882;-66
2023/08/13 01:47:21;;;;;;;12.68;4.80;;;;;;;-146.25;100.00;52240.47;2079540;28;20123;-66
2023/08/13 01:48:23;;;;;;;13.65;4.53;;;;;;;-146.25;100.00;52264.78;2071403;28;21649;-66
2023/08/13 01:49:25;;;;;;;12.07;4.60;;;;;;;-146.25;100.00;52274.94;2071151;28;20051;-66
2023/08/13 01:50:27;;;;;;;14.25;4.88;;;;;;;-146.25;100.00;52299.25;2070622;28;28503;-66
2023/08/13 01:51:33;;;;;;;16.15;4.60;;;;;;;-146.25;100.00;52311.44;2071163;28;20051;-67
2023/08/13 01:52:37;;;;;;;12.38;4.13;;;;;;;-146.25;100.00;52240.47;2079333;28;20160;-66
2023/08/13 01:53:39;;;;;;;14.85;4.18;;;;;;;-146.25;100.00;52246.53;2071037;28;22670;-66
2023/08/13 01:54:41;;;;;;;15.50;4.28;;;;;;;-146.25;100.00;52307.38;2078901;28;27849;-65
2023/08/13 01:55:45;;;;;;;12.07;3.85;;;;;;;-146.25;100.00;52262.75;2070802;28;25187;-66
2023/08/13 01:56:49;;;;;;;16.80;4.10;;;;;;;-146.25;100.00;52250.59;2063335;28;20041;-66
2023/08/13 01:57:53;;;;;;;11.98;3.83;;;;;;;-146.25;100.00;52270.88;2063263;28;20154;-66
2023/08/13 01:58:55;;;;;;;11.23;4.25;;;;;;;-146.25;100.00;52283.03;2064566;28;20102;-66
2023/08/13 01:59:57;;;;;;;16.05;4.40;;;;;;;-146.25;100.00;52266.81;2064265;28;20178;-65
2023/08/13 02:01:00;;;;;;;16.25;3.63;;;;;;;-146.25;100.00;52250.59;2064508;28;20046;-65
2023/08/13 02:02:02;;;;;;;10.23;3.90;;;;;;;-146.25;100.00;52295.19;2071723;28;32774;-66
2023/08/13 02:03:04;;;;;;;14.82;4.20;;;;;;;-146.25;100.00;52299.25;2072606;28;29950;-66
2023/08/13 02:04:06;;;;;;;9.95;3.50;;;;;;;-146.25;100.00;52270.88;2072572;28;35708;-66
2023/08/13 02:05:10;;;;;;;9.77;3.13;;;;;;;-146.25;100.00;52287.09;2080569;28;20054;-66
2023/08/13 02:06:12;;;;;;;14.40;3.92;;;;;;;-146.25;100.00;52307.38;2071890;28;26251;-66
2023/08/13 02:07:14;;;;;;;11.95;4.00;;;;;;;-146.25;100.00;52283.03;2072235;28;29740;-66
2023/08/13 02:08:17;;;;;;;13.98;3.47;;;;;;;-146.25;100.00;52291.16;2072845;28;30703;-67
2023/08/13 02:09:19;;;;;;;8.80;3.60;;;;;;;-146.25;100.00;52287.09;2073030;28;20100;-66
2023/08/13 02:10:21;;;;;;;11.13;3.40;;;;;;;-146.25;100.00;52293.19;2072367;28;28097;-66
2023/08/13 02:11:25;;;;;;;16.35;3.90;;;;;;;-146.25;100.00;52283.03;2072819;28;24022;-65
2023/08/13 02:12:27;;;;;;;15.85;4.20;;;;;;;-146.25;100.00;52246.53;2072746;28;20081;-65
2023/08/13 02:13:29;;;;;;;11.23;3.72;;;;;;;-146.25;100.00;52238.44;2072511;28;20046;-66
2023/08/13 02:14:33;;;;;;;15.18;3.85;;;;;;;-146.25;100.00;52270.88;2080589;28;20037;-66
2023/08/13 02:15:35;;;;;;;11.70;3.85;;;;;;;-146.25;100.00;52250.59;2080556;28;20127;-65
2023/08/13 02:16:38;;;;;;;11.27;3.50;;;;;;;-146.25;100.00;52291.16;2072303;28;20073;-65
2023/08/13 02:17:39;;;;;;;12.07;3.50;;;;;;;-146.25;100.00;52234.38;2072538;28;20050;-66
2023/08/13 02:18:43;;;;;;;12.30;3.35;;;;;;;-146.25;100.00;52252.63;2064139;28;21111;-66
2023/08/13 02:19:48;;;;;;;8.93;2.97;;;;;;;-146.25;100.00;52260.72;2072334;28;21034;-66
2023/08/13 02:20:49;;;;;;;9.95;3.22;;;;;;;-146.25;100.00;52270.88;2064170;28;28326;-65
2023/08/13 02:21:51;;;;;;;10.48;3.35;;;;;;;-146.25;100.00;52256.69;2064481;28;33387;-66
2023/08/13 02:22:53;;;;;;;10.98;3.05;;;;;;;-146.25;100.00;52262.75;2064424;28;31207;-64
2023/08/13 02:23:55;;;;;;;7.97;3.30;;;;;;;-146.25;100.00;52254.66;2065247;28;20039;-65
2023/08/13 02:24:57;;;;;;;10.55;3.20;;;;;;;-146.25;100.00;52307.38;2072396;28;20132;-65
2023/08/13 02:25:59;;;;;;;11.50;3.38;;;;;;;-146.25;100.00;52283.03;2072066;28;32678;-65
2023/08/13 02:27:03;;;;;;;9.73;3.42;;;;;;;-146.25;100.00;52218.16;2072313;28;20831;-66
2023/08/13 02:28:06;;;;;;;12.27;3.30;;;;;;;-146.25;100.00;52234.38;2072265;28;20030;-65
2023/08/13 02:29:09;;;;;;;8.20;3.05;;;;;;;-146.25;100.00;52315.47;2071966;28;20145;-66
2023/08/13 02:30:14;;;;;;;9.88;3.42;;;;;;;-146.25;100.00;52252.63;2072027;28;30560;-66
2023/08/13 02:31:16;;;;;;;11.23;2.83;;;;;;;-146.25;100.00;52256.69;2072224;28;20042;-66
2023/08/13 02:32:21;;;;;;;8.30;2.95;;;;;;;-146.25;100.00;52264.78;2063886;28;35947;-66
2023/08/13 02:33:25;;;;;;;9.75;3.00;;;;;;;-146.25;100.00;52295.19;2056289;28;26078;-66
2023/08/13 02:34:33;;;;;;;8.02;3.20;;;;;;;-146.25;100.00;52270.88;2064005;28;30321;-66
2023/08/13 02:35:35;;;;;;;11.02;3.50;;;;;;;-146.25;100.00;52264.78;2063965;28;20050;-66
2023/08/13 02:36:37;;;;;;;9.23;3.20;;;;;;;-146.25;100.00;52281.00;2064358;28;20142;-66
2023/08/13 02:37:39;;;;;;;7.13;3.03;;;;;;;-146.25;100.00;52311.44;2071627;28;32778;-65
2023/08/13 02:38:41;;;;;;;8.68;3.08;;;;;;;-146.25;100.00;52244.50;2072288;28;29970;-66
2023/08/13 02:39:45;;;;;;;7.80;2.53;;;;;;;-146.25;100.00;52315.47;2064559;28;28615;-66
2023/08/13 02:40:49;;;;;;;8.82;3.05;;;;;;;-146.25;100.00;52287.09;2064111;28;33680;-66
2023/08/13 02:41:51;;;;;;;7.65;2.67;;;;;;;-146.25;100.00;52309.41;2064463;28;21046;-66
2023/08/13 02:42:53;;;;;;;7.72;2.40;;;;;;;-146.25;100.00;52321.56;2063910;28;33920;-66
2023/08/13 02:43:59;;;;;;;10.85;3.67;;;;;;;-146.25;100.00;52270.88;2064396;28;27965;-68
2023/08/13 02:45:01;;;;;;;12.07;3.10;;;;;;;-146.25;100.00;52254.66;2064771;28;28389;-65
2023/08/13 02:46:05;;;;;;;11.00;3.03;;;;;;;-146.25;100.00;52260.72;2064790;28;20157;-66
2023/08/13 02:47:07;;;;;;;6.45;2.65;;;;;;;-146.25;100.00;52281.00;2064327;28;20947;-66
2023/08/13 02:48:10;;;;;;;10.15;3.28;;;;;;;-146.25;100.00;52244.50;2063289;28;30964;-66
2023/08/13 02:49:14;;;;;;;10.95;3.42;;;;;;;-146.25;100.00;52285.06;2067264;28;28347;-65
2023/08/13 02:50:16;;;;;;;8.45;3.15;;;;;;;-146.25;100.00;52276.97;2071869;28;20030;-65
2023/08/13 02:51:18;;;;;;;10.70;3.42;;;;;;;-146.25;100.00;52295.19;2071762;28;23237;-65
2023/08/13 02:52:20;;;;;;;16.08;3.45;;;;;;;-146.25;100.00;52266.81;2071552;28;20046;-65
2023/08/13 02:53:27;;;;;;;8.80;2.90;;;;;;;-146.25;100.00;52260.72;2072539;28;20924;-66
2023/08/13 02:54:29;;;;;;;11.23;3.42;;;;;;;-146.25;100.00;52291.16;2079879;28;20107;-65
2023/08/13 02:55:31;;;;;;;13.52;3.20;;;;;;;-146.25;100.00;52270.88;2072743;28;26729;-65
2023/08/13 02:56:33;;;;;;;12.57;3.42;;;;;;;-146.25;100.00;52276.97;2079824;28;31557;-66
2023/08/13 02:57:34;;;;;;;6.72;2.47;;;;;;;-146.25;100.00;52252.63;2071827;28;34517;-66
2023/08/13 02:58:40;;;;;;;10.02;3.33;;;;;;;-146.25;100.00;52287.09;2072531;28;20039;-65
2023/08/13 02:59:42;;;;;;;12.02;3.13;;;;;;;-146.25;100.00;52281.00;2072310;28;20120;-66
2023/08/13 03:00:44;;;;;;;10.32;3.17;;;;;;;-146.25;100.00;52248.56;2071936;28;20053;-65
2023/08/13 03:01:46;;;;;;;9.57;2.97;;;;;;;-146.25;100.00;52234.38;2072171;28;20046;-65
2023/08/13 03:02:47;;;;;;;10.63;3.30;;;;;;;-146.25;100.00;52274.94;2072340;28;20042;-65
2023/08/13 03:03:52;;;;;;;11.68;3.38;;;;;;;-146.25;100.00;52291.16;2072251;28;20049;-66
2023/08/13 03:04:57;;;;;;;14.18;3.45;;;;;;;-146.25;100.00;52254.66;2071696;28;28482;-66
2023/08/13 03:05:59;;;;;;;9.45;2.90;;;;;;;-146.25;100.00;52299.25;2079936;28;21087;-66
2023/08/13 03:07:01;;;;;;;11.38;3.80;;;;;;;-146.25;100.00;52297.22;2072631;28;20795;-66
2023/08/13 03:08:03;;;;;;;11.60;3.30;;;;;;;-146.25;100.00;52299.25;2073059;28;20042;-65
2023/08/13 03:09:05;;;;;;;9.02;3.42;;;;;;;-146.25;100.00;52295.19;2072549;28;20079;-66
2023/08/13 03:10:08;;;;;;;10.32;3.60;;;;;;;-146.25;100.00;52289.13;2072350;28;21534;-66
2023/08/13 03:11:09;;;;;;;12.77;3.60;;;;;;;-146.25;100.00;52272.91;2071755;28;20871;-66
2023/08/13 03:12:11;;;;;;;15.00;3.80;;;;;;;-146.25;100.00;52244.50;2072313;28;20835;-65
2023/08/13 03:13:18;;;;;;;9.93;3.83;;;;;;;-146.25;100.00;52295.19;2063864;28;20844;-66
2023/08/13 03:14:21;;;;;;;14.82;4.35;;;;;;;-146.25;100.00;52266.81;2064947;28;20050;-66
2023/08/13 03:15:24;;;;;;;11.93;3.60;;;;;;;-146.25;100.00;52295.19;2063764;28;20227;-66
2023/08/13 03:16:26;;;;;;;13.27;3.90;;;;;;;-146.25;100.00;52293.19;2072782;28;20156;-65
2023/08/13 03:17:28;;;;;;;8.63;3.20;;;;;;;-146.25;100.00;52291.16;2071813;28;23060;-66
2023/08/13 03:18:30;;;;;;;12.70;4.13;;;;;;;-146.25;100.00;52289.13;2072345;28;20042;-65
2023/08/13 03:19:35;;;;;;;11.82;3.40;;;;;;;-146.25;100.00;52266.81;2071464;28;20034;-66
2023/08/13 03:20:37;;;;;;;15.50;3.72;;;;;;;-146.25;100.00;52297.22;2072652;28;20051;-66
2023/08/13 03:21:39;;;;;;;8.05;3.35;;;;;;;-146.25;100.00;52274.94;2071428;28;20267;-66
2023/08/13 03:22:41;;;;;;;11.63;3.10;;;;;;;-146.25;100.00;52252.63;2071926;28;29133;-66
2023/08/13 03:23:43;;;;;;;8.98;3.20;;;;;;;-146.25;100.00;52297.22;2071764;28;21119;-66
2023/08/13 03:24:45;;;;;;;11.13;3.20;;;;;;;-146.25;100.00;52281.00;2064435;28;20093;-66
2023/08/13 03:25:46;;;;;;;6.78;2.78;;;;;;;-146.25;100.00;52303.31;2071988;28;20084;-66
2023/08/13 03:26:48;;;;;;;10.05;3.17;;;;;;;-146.25;100.00;52291.16;2072111;28;20046;-66
2023/08/13 03:27:51;;;;;;;13.82;3.92;;;;;;;-146.25;100.00;52274.94;2063993;28;20963;-65
2023/08/13 03:28:58;;;;;;;12.48;3.83;;;;;;;-146.25;100.00;52287.09;2072247;28;20921;-65
2023/08/13 03:29:59;;;;;;;13.93;3.90;;;;;;;-146.25;100.00;52270.88;2072551;28;20042;-65
2023/08/13 03:31:02;;;;;;;11.48;3.20;;;;;;;-146.25;100.00;52274.94;2080042;28;22449;-66
2023/08/13 03:32:25;;;;;;;16.17;3.60;;;;;;;-146.25;100.00;52295.19;2072001;28;20057;-66
2023/08/13 03:33:27;;;;;;;10.15;3.95;;;;;;;-146.25;100.00;52313.44;2064106;28;20567;-65
2023/08/13 03:34:29;;;;;;;12.05;3.20;;;;;;;-146.25;100.00;52301.28;2071790;28;20164;-66
2023/08/13 03:35:37;;;;;;;12.25;4.05;;;;;;;-146.25;100.00;52283.03;2071864;28;24139;-66
2023/08/13 03:36:39;;;;;;;11.43;3.65;;;;;;;-146.25;100.00;52299.25;2072477;28;20042;-66
2023/08/13 03:37:41;;;;;;;14.55;4.20;;;;;;;-146.25;100.00;52266.81;2072054;28;20043;-66
2023/08/13 03:38:43;;;;;;;8.20;3.45;;;;;;;-146.25;100.00;52281.00;2071995;28;20026;-66
2023/08/13 03:39:45;;;;;;;11.13;3.80;;;;;;;-146.25;100.00;52293.19;2079648;28;26406;-66
2023/08/13 03:40:46;;;;;;;10.05;3.72;;;;;;;-146.25;100.00;52323.59;2071805;28;20193;-65
2023/08/13 03:41:48;;;;;;;10.88;4.20;;;;;;;-146.25;100.00;52246.53;2071792;28;20461;-65
2023/08/13 03:42:50;;;;;;;11.95;3.63;;;;;;;-146.25;100.00;52272.91;2071902;28;20180;-66
2023/08/13 03:43:52;;;;;;;9.90;3.75;;;;;;;-146.25;100.00;52289.13;2071515;28;33059;-66
2023/08/13 03:44:55;;;;;;;12.98;4.53;;;;;;;-146.25;100.00;52285.06;2079552;28;24511;-66
2023/08/13 03:46:01;;;;;;;10.77;3.97;;;;;;;-146.25;100.00;52291.16;2071701;28;26440;-66
2023/08/13 03:47:05;;;;;;;9.90;3.42;;;;;;;-146.25;100.00;52319.53;2064546;28;20043;-66
2023/08/13 03:48:07;;;;;;;11.38;3.47;;;;;;;-146.25;100.00;52285.06;2072144;28;20177;-66
2023/08/13 03:49:09;;;;;;;13.57;4.15;;;;;;;-146.25;100.00;52291.16;2071180;28;29310;-66
2023/08/13 03:50:12;;;;;;;16.70;3.67;;;;;;;-146.25;100.00;52285.06;2072042;28;20027;-66
2023/08/13 03:51:14;;;;;;;9.02;3.47;;;;;;;-146.25;100.00;52266.81;2079242;28;20175;-65
2023/08/13 03:52:16;;;;;;;14.93;4.75;;;;;;;-146.25;100.00;52303.31;2071959;28;20046;-66
2023/08/13 03:53:24;;;;;;;9.63;3.45;;;;;;;-146.25;100.00;52274.94;2071373;28;20073;-66
2023/08/13 03:54:28;;;;;;;11.60;3.70;;;;;;;-146.25;100.00;52291.16;2064882;28;20092;-65
2023/08/13 03:55:31;;;;;;;10.55;3.45;;;;;;;-146.25;100.00;52315.47;2063201;28;20043;-66
2023/08/13 03:56:34;;;;;;;10.20;3.72;;;;;;;-146.25;100.00;52266.81;2072073;28;20045;-66
2023/08/13 03:57:36;;;;;;;14.80;4.47;;;;;;;-146.25;100.00;52266.81;2071799;28;20045;-66
2023/08/13 03:58:41;;;;;;;13.80;3.92;;;;;;;-146.25;100.00;52256.69;2072357;28;20530;-65
2023/08/13 03:59:50;;;;;;;14.23;4.20;;;;;;;-146.25;100.00;52230.31;2071867;28;20186;-66
2023/08/13 04:00:51;;;;;;;13.70;4.30;;;;;;;-146.25;100.00;52313.44;2064099;28;20930;-66
2023/08/13 04:01:53;;;;;;;11.05;4.13;;;;;;;-146.25;100.00;52289.13;2063459;28;20051;-67
2023/08/13 04:02:57;;;;;;;15.20;4.13;;;;;;;-146.25;100.00;52268.84;2071144;28;32727;-67
2023/08/13 04:04:02;;;;;;;10.82;4.30;;;;;;;-146.25;100.00;52266.81;2072495;28;20050;-66
2023/08/13 04:05:06;;;;;;;14.15;4.68;;;;;;;-146.25;100.00;52283.03;2071740;28;20047;-67
2023/08/13 04:06:08;;;;;;;10.23;4.68;;;;;;;-146.25;100.00;52287.09;2079482;28;20149;-66
2023/08/13 04:07:10;;;;;;;13.75;4.57;;;;;;;-146.25;100.00;52307.38;2071493;28;20846;-67
2023/08/13 04:08:14;;;;;;;11.27;5.00;;;;;;;-146.25;100.00;52274.94;2071764;28;24591;-66
2023/08/13 04:09:16;;;;;;;12.50;4.60;;;;;;;-146.25;100.00;52287.09;2071083;28;32407;-66
2023/08/13 04:10:20;;;;;;;9.77;4.28;;;;;;;-146.25;100.00;52303.31;2071918;28;20948;-66
2023/08/13 04:11:22;;;;;;;14.35;4.97;;;;;;;-146.25;100.00;52295.19;2071136;28;29055;-66
2023/08/13 04:12:24;;;;;;;13.45;4.60;;;;;;;-146.25;100.00;52274.94;2071775;28;34189;-65
2023/08/13 04:13:25;;;;;;;18.27;4.95;;;;;;;-146.25;100.00;52266.81;2072588;28;20142;-66
2023/08/13 04:14:27;;;;;;;10.98;5.05;;;;;;;-146.25;100.00;52315.47;2071772;28;20188;-66
2023/08/13 04:15:30;;;;;;;13.23;4.90;;;;;;;-146.25;100.00;52270.88;2063395;28;20363;-66
2023/08/13 04:16:32;;;;;;;9.48;4.50;;;;;;;-146.25;100.00;52246.53;2071871;28;20132;-66
2023/08/13 04:17:34;;;;;;;15.75;4.72;;;;;;;-146.25;100.00;52264.78;2063301;28;21069;-66
2023/08/13 04:18:37;;;;;;;12.82;4.90;;;;;;;-146.25;100.00;52293.19;2072201;28;20197;-66
2023/08/13 04:19:41;;;;;;;11.88;5.30;;;;;;;-146.25;100.00;52246.53;2068617;28;20200;-66
2023/08/13 04:20:43;;;;;;;12.27;4.70;;;;;;;-146.25;100.00;52272.91;2063212;28;20089;-66
2023/08/13 04:21:44;;;;;;;12.80;4.80;;;;;;;-146.25;100.00;52299.25;2069788;28;23769;-64
2023/08/13 04:22:46;;;;;;;12.75;4.50;;;;;;;-146.25;100.00;52309.41;2071288;28;20421;-66
2023/08/13 04:23:57;;;;;;;15.32;4.88;;;;;;;-146.25;100.00;52299.25;2063667;28;21081;-66
2023/08/13 04:24:59;;;;;;;17.42;4.95;;;;;;;-146.25;100.00;52272.91;2071525;28;20050;-65
2023/08/13 04:26:05;;;;;;;11.23;4.38;;;;;;;-146.25;100.00;52303.31;2063479;28;20043;-65
2023/08/13 04:27:07;;;;;;;11.32;4.75;;;;;;;-146.25;100.00;52270.88;2064088;28;20051;-65
2023/08/13 04:28:09;;;;;;;14.30;5.18;;;;;;;-146.25;100.00;52272.91;2071241;28;20069;-65
2023/08/13 04:29:14;;;;;;;13.00;5.03;;;;;;;-146.25;100.00;52266.81;2072302;28;20038;-64
2023/08/13 04:30:19;;;;;;;10.18;4.97;;;;;;;-146.25;100.00;52307.38;2071376;28;20177;-66
2023/08/13 04:31:20;;;;;;;14.52;5.20;;;;;;;-146.25;100.00;52270.88;2071554;28;29969;-66
2023/08/13 04:32:27;;;;;;;12.68;4.93;;;;;;;-146.25;100.00;52331.69;2071648;28;20046;-66
2023/08/13 04:33:29;;;;;;;15.48;5.43;;;;;;;-146.25;100.00;52276.97;2063982;28;20043;-65
2023/08/13 04:34:31;;;;;;;10.88;4.22;;;;;;;-146.25;100.00;52297.22;2063001;28;20043;-64
2023/08/13 04:35:36;;;;;;;9.55;4.35;;;;;;;-146.25;100.00;52303.31;2063374;28;20035;-65
2023/08/13 04:36:40;;;;;;;10.93;4.18;;;;;;;-146.25;100.00;52323.59;2063264;28;20879;-67
2023/08/13 04:37:44;;;;;;;14.75;4.75;;;;;;;-146.25;100.00;52317.50;2071513;28;20936;-66
2023/08/13 04:38:47;;;;;;;11.23;3.83;;;;;;;-146.25;100.00;52323.59;2063280;28;20050;-66
2023/08/13 04:39:50;;;;;;;9.15;3.80;;;;;;;-146.25;100.00;52287.09;2071778;28;20042;-66
2023/08/13 04:40:51;;;;;;;12.20;3.80;;;;;;;-146.25;100.00;52315.47;2063188;28;20034;-67
2023/08/13 04:42:01;;;;;;;9.63;3.55;;;;;;;-146.25;100.00;52329.66;2071627;28;20129;-66
2023/08/13 04:43:04;;;;;;;8.63;3.55;;;;;;;-146.25;100.00;52347.91;2071337;28;20168;-66
2023/08/13 04:44:06;;;;;;;7.53;3.22;;;;;;;-146.25;100.00;52335.75;2063611;28;20157;-66
2023/08/13 04:45:12;;;;;;;7.40;3.10;;;;;;;-146.25;100.00;52319.53;2063260;28;20043;-66
2023/08/13 04:46:15;;;;;;;9.43;3.15;;;;;;;-146.25;100.00;52331.69;2064514;28;20059;-66
2023/08/13 04:47:26;;;;;;;8.93;2.75;;;;;;;-146.25;100.00;52319.53;2064559;28;20155;-66
2023/08/13 04:48:47;;;;;;;9.13;3.42;;;;;;;-146.25;100.00;52337.78;2071722;28;20041;-66